createdAt,value
2018-12-13T00:04:42.656Z,1.40
2018-12-13T00:09:45.838Z,1.30
2018-12-13T00:14:48.993Z,1.30
2018-12-13T00:19:52.166Z,1.30
2018-12-13T00:24:55.331Z,1.30
2018-12-13T00:29:58.499Z,1.00
2018-12-13T00:35:01.645Z,0.90
2018-12-13T00:40:04.812Z,0.80
2018-12-13T00:45:07.964Z,0.80
2018-12-13T00:50:11.111Z,0.80
2018-12-13T00:55:14.275Z,0.80
2018-12-13T01:00:17.424Z,0.70
2018-12-13T01:10:30.195Z,0.50
2018-12-13T01:15:34.185Z,0.20
2018-12-13T01:20:37.392Z,0.00
2018-12-13T01:25:40.539Z,-0.10
2018-12-13T01:30:43.716Z,-0.20
2018-12-13T01:35:46.838Z,-0.40
2018-12-13T01:40:49.930Z,-0.30
2018-12-13T01:45:53.068Z,-0.30
2018-12-13T01:50:56.243Z,-0.50
2018-12-13T01:55:59.371Z,-0.70
2018-12-13T02:01:02.521Z,-0.70
2018-12-13T02:06:05.630Z,-0.80
2018-12-13T02:11:08.767Z,-0.90
2018-12-13T02:16:11.934Z,-0.90
2018-12-13T02:21:15.075Z,-1.00
2018-12-13T02:26:18.178Z,-1.10
2018-12-13T02:31:21.299Z,-1.20
2018-12-13T02:36:24.448Z,-1.20
2018-12-13T02:41:27.556Z,-1.10
2018-12-13T02:46:30.801Z,-0.90
2018-12-13T02:51:34.067Z,-1.00
2018-12-13T02:56:37.206Z,-0.70
2018-12-13T03:01:40.337Z,-0.80
2018-12-13T03:06:43.474Z,-0.70
2018-12-13T03:11:46.626Z,-0.60
2018-12-13T03:16:49.788Z,-0.70
2018-12-13T03:21:52.935Z,-0.40
2018-12-13T03:26:56.063Z,-0.30
2018-12-13T03:31:59.205Z,-0.40
2018-12-13T03:37:02.356Z,-0.40
2018-12-13T03:42:05.819Z,-0.40
2018-12-13T03:47:09.010Z,-0.20
2018-12-13T03:52:12.162Z,-0.30
2018-12-13T03:57:15.247Z,-0.30
2018-12-13T04:02:18.384Z,-0.10
2018-12-13T04:07:27.632Z,0.00
2018-12-13T04:12:26.673Z,-0.30
2018-12-13T04:17:29.820Z,-0.40
2018-12-13T04:22:32.953Z,-0.50
2018-12-13T04:27:36.089Z,-0.50
2018-12-13T04:32:39.242Z,-0.20
2018-12-13T04:37:42.365Z,0.10
2018-12-13T04:42:45.513Z,-0.10
2018-12-13T04:47:48.660Z,0.00
2018-12-13T04:52:51.802Z,0.20
2018-12-13T04:57:54.942Z,0.50
2018-12-13T05:02:58.105Z,0.70
2018-12-13T05:08:01.253Z,0.90
2018-12-13T05:13:04.404Z,0.90
2018-12-13T05:18:07.585Z,0.80
2018-12-13T05:23:10.708Z,0.70
2018-12-13T05:28:13.852Z,0.60
2018-12-13T05:33:17.000Z,0.50
2018-12-13T05:38:20.131Z,0.60
2018-12-13T05:43:23.276Z,0.60
2018-12-13T05:48:26.425Z,0.50
2018-12-13T05:53:29.588Z,0.50
2018-12-13T05:58:32.703Z,0.30
2018-12-13T06:03:35.835Z,0.30
2018-12-13T06:08:38.987Z,0.30
2018-12-13T06:13:42.165Z,0.30
2018-12-13T06:18:45.328Z,0.30
2018-12-13T06:23:48.556Z,0.30
2018-12-13T06:28:51.708Z,0.30
2018-12-13T06:33:54.890Z,0.30
2018-12-13T06:38:58.019Z,0.50
2018-12-13T06:44:01.243Z,0.60
2018-12-13T06:49:04.411Z,0.80
2018-12-13T06:54:07.563Z,0.80
2018-12-13T06:59:10.671Z,0.70
2018-12-13T07:04:13.827Z,0.80
2018-12-13T07:09:17.041Z,0.70
2018-12-13T07:14:20.207Z,0.70
2018-12-13T07:19:23.357Z,0.70
2018-12-13T07:24:26.518Z,0.70
2018-12-13T07:29:29.680Z,0.70
2018-12-13T07:34:32.817Z,0.90
2018-12-13T07:39:35.984Z,1.00
2018-12-13T07:44:39.157Z,0.90
2018-12-13T07:49:42.345Z,0.90
2018-12-13T07:54:45.511Z,1.00
2018-12-13T07:59:48.695Z,1.00
2018-12-13T08:04:51.908Z,1.10
2018-12-13T08:09:55.062Z,1.20
2018-12-13T08:14:58.178Z,1.10
2018-12-13T08:20:01.343Z,1.20
2018-12-13T08:25:04.714Z,1.40
2018-12-13T08:30:07.860Z,1.40
2018-12-13T08:35:11.178Z,1.50
2018-12-13T08:40:14.319Z,1.70
2018-12-13T08:45:17.455Z,1.60
2018-12-13T08:50:20.538Z,1.80
2018-12-13T08:55:23.687Z,2.00
2018-12-13T09:00:26.852Z,2.00
2018-12-13T09:05:30.054Z,2.00
2018-12-13T09:10:33.228Z,2.10
2018-12-13T09:15:36.369Z,1.90
2018-12-13T09:20:39.521Z,2.00
2018-12-13T09:25:42.653Z,2.00
2018-12-13T09:30:45.825Z,1.90
2018-12-13T09:35:48.965Z,1.90
2018-12-13T09:40:52.147Z,1.80
2018-12-13T09:45:55.352Z,1.60
2018-12-13T09:50:58.602Z,1.60
2018-12-13T09:56:01.754Z,1.80
2018-12-13T10:01:05.145Z,1.80
2018-12-13T10:06:08.462Z,2.00
2018-12-13T10:11:11.636Z,2.10
2018-12-13T10:16:14.866Z,2.30
2018-12-13T10:21:18.072Z,2.40
2018-12-13T10:26:21.687Z,2.30
2018-12-13T10:31:24.803Z,2.30
2018-12-13T10:36:28.010Z,2.40
2018-12-13T10:41:31.203Z,2.70
2018-12-13T10:46:34.388Z,2.90
2018-12-13T10:51:37.725Z,3.10
2018-12-13T10:56:40.860Z,3.10
2018-12-13T11:01:48.321Z,3.30
2018-12-13T11:06:51.446Z,4.10
2018-12-13T11:11:54.689Z,4.60
2018-12-13T11:16:57.900Z,4.10
2018-12-13T11:22:01.076Z,3.10
2018-12-13T11:27:16.516Z,2.90
2018-12-13T11:32:19.677Z,3.00
2018-12-13T11:37:22.791Z,3.30
2018-12-13T11:42:25.943Z,3.70
2018-12-13T11:47:29.169Z,4.30
2018-12-13T11:52:32.433Z,4.70
2018-12-13T11:57:35.621Z,4.50
2018-12-13T12:02:38.832Z,4.00
2018-12-13T12:07:42.109Z,3.90
2018-12-13T12:12:45.258Z,4.00
2018-12-13T12:17:48.355Z,3.90
2018-12-13T12:22:51.554Z,3.90
2018-12-13T12:27:54.765Z,4.00
2018-12-13T12:32:57.941Z,3.80
2018-12-13T12:38:01.012Z,3.80
2018-12-13T12:43:04.054Z,4.00
2018-12-13T12:48:07.259Z,4.40
2018-12-13T12:53:10.404Z,6.20
2018-12-13T12:58:13.607Z,7.20
2018-12-13T13:03:16.706Z,6.10
2018-12-13T13:08:19.892Z,4.80
2018-12-13T13:13:23.073Z,4.20
2018-12-13T13:18:26.240Z,4.10
2018-12-13T13:23:29.426Z,3.80
2018-12-13T13:28:32.627Z,3.70
2018-12-13T13:33:35.788Z,3.70
2018-12-13T13:38:39.142Z,3.60
2018-12-13T13:43:42.280Z,3.40
2018-12-13T13:48:45.468Z,3.30
2018-12-13T13:53:48.692Z,3.10
2018-12-13T13:58:51.845Z,3.00
2018-12-13T14:03:55.101Z,3.20
2018-12-13T14:08:58.321Z,3.10
2018-12-13T14:14:02.024Z,3.00
2018-12-13T14:19:05.274Z,3.00
2018-12-13T14:24:08.381Z,3.00
2018-12-13T14:29:12.112Z,2.90
2018-12-13T14:34:18.382Z,3.00
2018-12-13T14:39:21.452Z,2.90
2018-12-13T14:44:24.714Z,2.90
2018-12-13T14:49:27.783Z,2.80
2018-12-13T14:54:30.932Z,2.80
2018-12-13T14:59:34.094Z,2.70
2018-12-13T15:04:37.221Z,2.60
2018-12-13T15:09:40.666Z,2.60
2018-12-13T15:14:43.878Z,2.60
2018-12-13T15:19:47.012Z,2.70
2018-12-13T15:24:50.257Z,2.80
2018-12-13T15:29:53.423Z,2.90
2018-12-13T15:34:56.637Z,2.70
2018-12-13T15:39:59.748Z,2.80
2018-12-13T15:45:02.895Z,2.60
2018-12-13T15:50:06.801Z,2.50
2018-12-13T15:55:09.977Z,2.60
2018-12-13T16:00:13.176Z,2.80
2018-12-13T16:05:16.295Z,2.90
2018-12-13T16:10:19.460Z,2.90
2018-12-13T16:15:22.616Z,2.80
2018-12-13T16:20:25.738Z,2.80
2018-12-13T16:25:28.853Z,2.70
2018-12-13T16:30:32.007Z,2.70
2018-12-13T16:35:35.170Z,2.80
2018-12-13T16:40:38.289Z,2.80
2018-12-13T16:45:41.472Z,2.80
2018-12-13T16:50:44.623Z,2.70
2018-12-13T16:55:47.903Z,2.80
2018-12-13T17:00:51.076Z,2.60
2018-12-13T17:05:54.263Z,2.60
2018-12-13T17:10:57.534Z,2.60
2018-12-13T17:16:00.768Z,2.60
2018-12-13T17:21:04.480Z,2.90
2018-12-13T17:26:07.611Z,2.70
2018-12-13T17:31:10.806Z,2.70
2018-12-13T17:36:13.949Z,2.70
2018-12-13T17:41:17.087Z,2.70
2018-12-13T17:46:20.327Z,2.70
2018-12-13T17:51:23.536Z,2.60
2018-12-13T17:56:26.835Z,2.60
2018-12-13T18:01:29.979Z,2.60
2018-12-13T18:06:33.144Z,2.60
2018-12-13T18:11:36.319Z,2.60
2018-12-13T18:16:43.414Z,2.50
2018-12-13T18:21:44.650Z,2.60
2018-12-13T18:26:47.909Z,2.40
2018-12-13T18:31:51.035Z,2.40
2018-12-13T18:36:54.202Z,2.40
2018-12-13T18:41:57.484Z,2.60
2018-12-13T18:47:00.619Z,2.50
2018-12-13T18:52:03.750Z,2.50
2018-12-13T18:57:06.887Z,2.60
2018-12-13T19:02:10.060Z,2.60
2018-12-13T19:07:14.046Z,2.80
2018-12-13T19:12:17.191Z,2.80
2018-12-13T19:17:20.344Z,2.70
2018-12-13T19:22:23.451Z,2.70
2018-12-13T19:27:30.082Z,2.70
2018-12-13T19:32:33.436Z,2.70
2018-12-13T19:37:36.776Z,2.70
2018-12-13T19:42:40.019Z,2.70
2018-12-13T19:52:54.503Z,2.70
2018-12-13T19:57:57.878Z,2.70
2018-12-13T20:03:08.874Z,2.70
2018-12-13T20:08:12.275Z,2.70
2018-12-13T20:13:15.591Z,2.70
2018-12-13T20:18:23.990Z,2.70
2018-12-13T20:23:30.519Z,2.60
2018-12-13T20:34:35.693Z,2.50
2018-12-13T20:39:41.431Z,2.40
2018-12-13T20:44:44.776Z,2.40
2018-12-13T20:49:48.136Z,2.40
2018-12-13T20:54:51.546Z,2.50
2018-12-13T20:59:54.943Z,2.40
2018-12-13T21:05:00.259Z,2.50
2018-12-13T21:10:07.609Z,2.40
2018-12-13T21:20:54.208Z,2.50
2018-12-13T21:26:06.461Z,2.40
2018-12-13T21:31:18.932Z,2.40
2018-12-13T21:36:26.467Z,2.30
2018-12-13T21:41:31.938Z,2.30
2018-12-13T21:46:35.351Z,2.40
2018-12-13T21:51:38.654Z,2.40
2018-12-13T21:56:42.483Z,2.40
2018-12-13T22:01:45.715Z,2.40
2018-12-13T22:06:48.957Z,2.30
2018-12-13T22:11:52.111Z,2.30
2018-12-13T22:16:56.313Z,2.40
2018-12-13T22:21:59.680Z,2.40
2018-12-13T22:27:02.922Z,2.40
2018-12-13T22:32:06.556Z,2.30
2018-12-13T22:37:09.860Z,2.30
2018-12-13T22:42:13.052Z,2.20
2018-12-13T22:47:16.212Z,2.20
2018-12-13T22:52:19.380Z,2.20
2018-12-13T22:57:22.572Z,2.20
2018-12-13T23:02:25.681Z,2.20
2018-12-13T23:07:28.871Z,2.10
2018-12-13T23:12:32.023Z,2.10
2018-12-13T23:17:35.146Z,2.00
2018-12-13T23:22:38.311Z,1.90
2018-12-13T23:27:41.491Z,1.90
2018-12-13T23:32:44.651Z,1.90
2018-12-13T23:37:47.821Z,2.00
2018-12-13T23:42:50.949Z,2.10
2018-12-13T23:47:54.115Z,2.00
2018-12-13T23:52:57.299Z,1.90
2018-12-13T23:58:00.475Z,1.90
